createdAt,value
2023-11-07T00:01:50.868Z,2.60
2023-11-07T00:04:18.539Z,2.42
2023-11-07T00:06:47.579Z,2.17
2023-11-07T00:09:15.465Z,2.60
2023-11-07T00:11:43.097Z,2.10
2023-11-07T00:14:10.933Z,1.83
2023-11-07T00:16:39.155Z,2.83
2023-11-07T00:19:08.851Z,1.55
2023-11-07T00:21:36.762Z,2.33
2023-11-07T00:24:06.608Z,2.70
2023-11-07T00:26:35.429Z,2.50
2023-11-07T00:29:04.130Z,2.30
2023-11-07T00:31:32.024Z,2.90
2023-11-07T00:34:00.041Z,2.00
2023-11-07T00:36:27.836Z,2.28
2023-11-07T00:38:55.710Z,2.25
2023-11-07T00:41:26.263Z,2.55
2023-11-07T00:43:54.016Z,2.85
2023-11-07T00:46:21.660Z,2.92
2023-11-07T00:48:49.660Z,3.08
2023-11-07T00:51:17.460Z,2.00
2023-11-07T00:53:45.262Z,2.70
2023-11-07T00:56:13.083Z,2.42
2023-11-07T00:58:42.175Z,2.38
2023-11-07T01:01:10.138Z,2.75
2023-11-07T01:03:38.007Z,1.90
2023-11-07T01:06:07.412Z,2.70
2023-11-07T01:08:35.359Z,2.90
2023-11-07T01:11:04.429Z,2.60
2023-11-07T01:13:32.246Z,2.20
2023-11-07T01:16:01.241Z,2.97
2023-11-07T01:18:29.161Z,2.70
2023-11-07T01:20:58.393Z,2.80
2023-11-07T01:23:28.609Z,3.67
2023-11-07T01:25:56.267Z,3.45
2023-11-07T01:28:24.350Z,3.75
2023-11-07T01:30:52.159Z,3.10
2023-11-07T01:33:21.373Z,3.10
2023-11-07T01:35:49.124Z,3.25
2023-11-07T01:38:16.848Z,3.25
2023-11-07T01:40:44.639Z,3.75
2023-11-07T01:43:15.879Z,2.95
2023-11-07T01:45:44.258Z,3.58
2023-11-07T01:48:14.558Z,4.55
2023-11-07T01:50:43.978Z,3.55
2023-11-07T01:53:13.188Z,3.80
2023-11-07T01:55:42.915Z,4.20
2023-11-07T01:58:10.848Z,4.80
2023-11-07T02:00:41.251Z,5.68
2023-11-07T02:03:09.320Z,4.85
2023-11-07T02:05:37.330Z,5.63
2023-11-07T02:08:06.856Z,5.45
2023-11-07T02:10:34.533Z,5.03
2023-11-07T02:13:02.218Z,5.47
2023-11-07T02:15:32.523Z,5.40
2023-11-07T02:18:01.160Z,6.10
2023-11-07T02:20:29.598Z,6.53
2023-11-07T02:23:04.505Z,5.50
2023-11-07T02:25:33.659Z,6.43
2023-11-07T02:28:02.370Z,7.15
2023-11-07T02:30:30.061Z,7.65
2023-11-07T02:32:58.912Z,7.25
2023-11-07T02:35:27.720Z,8.10
2023-11-07T02:37:55.365Z,8.15
2023-11-07T02:40:23.103Z,8.43
2023-11-07T02:42:52.067Z,9.05
2023-11-07T02:45:19.835Z,8.45
2023-11-07T02:47:47.565Z,7.68
2023-11-07T02:50:15.224Z,7.43
2023-11-07T02:52:45.350Z,8.63
2023-11-07T02:55:13.022Z,7.72
2023-11-07T02:57:41.034Z,8.38
2023-11-07T03:00:11.305Z,8.40
2023-11-07T03:02:39.455Z,6.85
2023-11-07T03:05:08.252Z,8.48
2023-11-07T03:07:36.313Z,8.02
2023-11-07T03:10:04.623Z,7.53
2023-11-07T03:12:32.424Z,6.88
2023-11-07T03:15:00.401Z,7.63
2023-11-07T03:17:29.697Z,6.45
2023-11-07T03:19:57.320Z,7.65
2023-11-07T03:22:27.787Z,7.93
2023-11-07T03:24:55.974Z,6.75
2023-11-07T03:27:23.617Z,7.75
2023-11-07T03:29:51.412Z,5.82
2023-11-07T03:32:19.397Z,6.95
2023-11-07T03:34:48.451Z,7.75
2023-11-07T03:37:16.225Z,6.35
2023-11-07T03:39:44.010Z,7.38
2023-11-07T03:42:11.665Z,6.82
2023-11-07T03:44:39.295Z,7.07
2023-11-07T03:47:07.109Z,6.32
2023-11-07T03:49:35.196Z,5.70
2023-11-07T03:52:04.555Z,5.90
2023-11-07T03:54:32.293Z,6.55
2023-11-07T03:57:00.550Z,5.82
2023-11-07T03:59:28.290Z,5.90
2023-11-07T04:01:57.197Z,5.47
2023-11-07T04:04:24.934Z,5.28
2023-11-07T04:06:52.639Z,6.68
2023-11-07T04:09:22.394Z,7.90
2023-11-07T04:11:50.949Z,8.02
2023-11-07T04:14:19.280Z,7.90
2023-11-07T04:16:47.039Z,7.47
2023-11-07T04:19:14.726Z,8.95
2023-11-07T04:21:42.507Z,8.02
2023-11-07T04:24:10.379Z,7.70
2023-11-07T04:26:39.387Z,8.25
2023-11-07T04:29:07.977Z,7.95
2023-11-07T04:31:39.344Z,7.85
2023-11-07T04:34:11.218Z,8.45
2023-11-07T04:36:41.600Z,7.32
2023-11-07T04:39:10.658Z,8.15
2023-11-07T04:41:39.921Z,7.95
2023-11-07T04:44:07.842Z,7.75
2023-11-07T04:46:38.727Z,9.00
2023-11-07T04:49:08.148Z,8.20
2023-11-07T04:51:35.965Z,7.47
2023-11-07T04:54:03.700Z,7.60
2023-11-07T04:56:31.363Z,7.88
2023-11-07T04:59:00.436Z,7.57
2023-11-07T05:01:28.225Z,9.40
2023-11-07T05:03:56.163Z,8.82
2023-11-07T05:06:24.338Z,9.18
2023-11-07T05:08:52.455Z,10.15
2023-11-07T05:11:20.417Z,8.85
2023-11-07T05:13:49.422Z,10.25
2023-11-07T05:16:18.525Z,9.27
2023-11-07T05:18:46.707Z,9.30
2023-11-07T05:21:14.421Z,8.45
2023-11-07T05:23:42.060Z,9.57
2023-11-07T05:26:11.206Z,9.32
2023-11-07T05:28:38.910Z,8.02
2023-11-07T05:31:07.016Z,8.55
2023-11-07T05:33:39.031Z,6.50
2023-11-07T05:36:07.179Z,8.13
2023-11-07T05:38:35.252Z,7.00
2023-11-07T05:41:03.208Z,6.10
2023-11-07T05:43:31.936Z,5.35
2023-11-07T05:46:02.233Z,5.40
2023-11-07T05:48:30.145Z,5.07
2023-11-07T05:51:04.972Z,4.10
2023-11-07T05:53:35.008Z,4.82
2023-11-07T05:56:02.976Z,4.32
2023-11-07T05:58:31.440Z,3.50
2023-11-07T06:00:59.549Z,3.63
2023-11-07T06:03:35.410Z,3.25
2023-11-07T06:06:05.133Z,3.20
2023-11-07T06:08:32.876Z,3.10
2023-11-07T06:11:00.599Z,2.80
2023-11-07T06:13:28.339Z,3.60
2023-11-07T06:15:56.013Z,2.90
2023-11-07T06:18:25.665Z,2.47
2023-11-07T06:20:53.471Z,2.55
2023-11-07T06:23:24.163Z,2.33
2023-11-07T06:25:51.850Z,3.05
2023-11-07T06:28:19.479Z,2.63
2023-11-07T06:30:47.258Z,3.30
2023-11-07T06:33:17.257Z,3.47
2023-11-07T06:35:45.919Z,3.17
2023-11-07T06:38:13.667Z,3.03
2023-11-07T06:40:42.680Z,3.70
2023-11-07T06:43:10.505Z,3.63
2023-11-07T06:45:38.179Z,3.42
2023-11-07T06:48:06.131Z,3.60
2023-11-07T06:50:33.834Z,3.80
2023-11-07T06:53:01.494Z,2.65
2023-11-07T06:55:29.916Z,2.40
2023-11-07T06:57:59.006Z,3.00
2023-11-07T07:00:27.402Z,3.03
2023-11-07T07:02:57.481Z,3.25
2023-11-07T07:05:26.928Z,3.22
2023-11-07T07:07:55.630Z,3.40
2023-11-07T07:10:23.564Z,3.20
2023-11-07T07:12:52.478Z,3.35
2023-11-07T07:15:21.856Z,3.50
2023-11-07T07:17:49.682Z,2.45
2023-11-07T07:20:17.341Z,3.30
2023-11-07T07:22:45.684Z,2.85
2023-11-07T07:25:17.119Z,2.78
2023-11-07T07:27:47.319Z,2.60
2023-11-07T07:30:22.034Z,2.55
2023-11-07T07:32:52.779Z,2.78
2023-11-07T07:35:22.336Z,2.88
2023-11-07T07:37:53.229Z,2.67
2023-11-07T07:40:31.010Z,2.47
2023-11-07T07:43:00.031Z,2.17
2023-11-07T07:45:30.824Z,2.15
2023-11-07T07:48:00.814Z,1.80
2023-11-07T07:50:31.915Z,2.55
2023-11-07T07:53:03.337Z,2.05
2023-11-07T07:55:35.149Z,2.30
2023-11-07T07:58:06.633Z,2.05
2023-11-07T08:00:34.275Z,2.45
2023-11-07T08:03:08.346Z,2.65
2023-11-07T08:05:40.269Z,2.38
2023-11-07T08:08:09.236Z,3.33
2023-11-07T08:10:37.257Z,3.22
2023-11-07T08:13:08.028Z,3.28
2023-11-07T08:15:36.997Z,3.50
2023-11-07T08:18:08.418Z,3.60
2023-11-07T08:20:38.443Z,4.07
2023-11-07T08:23:06.992Z,3.53
2023-11-07T08:25:35.369Z,4.50
2023-11-07T08:28:08.077Z,3.70
2023-11-07T08:30:38.833Z,3.03
2023-11-07T08:33:11.168Z,3.35
2023-11-07T08:35:39.983Z,3.25
2023-11-07T08:38:07.973Z,3.50
2023-11-07T08:40:36.821Z,3.60
2023-11-07T08:43:04.963Z,3.60
2023-11-07T08:45:33.811Z,3.75
2023-11-07T08:48:02.188Z,3.55
2023-11-07T08:50:31.233Z,2.88
2023-11-07T08:52:59.061Z,2.78
2023-11-07T08:55:27.415Z,2.67
2023-11-07T08:57:55.321Z,3.17
2023-11-07T09:00:24.361Z,2.45
2023-11-07T09:02:54.012Z,3.00
2023-11-07T09:05:22.339Z,3.22
2023-11-07T09:07:51.667Z,2.72
2023-11-07T09:10:21.469Z,2.72
2023-11-07T09:12:49.536Z,2.40
2023-11-07T09:15:21.766Z,2.05
2023-11-07T09:17:49.909Z,2.10
2023-11-07T09:20:18.142Z,2.60
2023-11-07T09:22:45.892Z,2.70
2023-11-07T09:25:15.017Z,2.33
2023-11-07T09:27:42.750Z,3.22
2023-11-07T09:30:12.628Z,2.90
2023-11-07T09:32:41.450Z,2.80
2023-11-07T09:35:09.550Z,2.28
2023-11-07T09:37:40.941Z,2.60
2023-11-07T09:40:11.695Z,2.22
2023-11-07T09:42:42.038Z,2.50
2023-11-07T09:45:12.349Z,1.92
2023-11-07T09:47:41.117Z,2.40
2023-11-07T09:50:09.809Z,2.05
2023-11-07T09:52:40.222Z,2.15
2023-11-07T09:55:10.481Z,2.00
2023-11-07T09:57:42.040Z,2.25
2023-11-07T10:00:12.266Z,2.10
2023-11-07T10:02:41.556Z,1.92
2023-11-07T10:05:10.980Z,2.17
2023-11-07T10:07:39.770Z,1.98
2023-11-07T10:10:08.984Z,1.88
2023-11-07T10:12:41.103Z,1.60
2023-11-07T10:15:18.292Z,1.85
2023-11-07T10:18:01.879Z,1.27
2023-11-07T10:20:30.782Z,1.83
2023-11-07T10:23:00.103Z,1.77
2023-11-07T10:25:28.976Z,1.60
2023-11-07T10:27:56.722Z,1.30
2023-11-07T10:30:35.196Z,1.48
2023-11-07T10:33:03.197Z,1.35
2023-11-07T10:35:31.055Z,1.23
2023-11-07T10:37:58.683Z,1.52
2023-11-07T10:40:26.444Z,0.75
2023-11-07T10:42:54.166Z,1.13
2023-11-07T10:45:23.126Z,0.90
2023-11-07T10:47:52.306Z,0.77
2023-11-07T10:50:21.118Z,0.80
2023-11-07T10:52:50.197Z,0.80
2023-11-07T10:55:18.129Z,0.65
2023-11-07T10:57:51.157Z,0.88
2023-11-07T11:00:21.947Z,0.77
2023-11-07T11:02:54.077Z,0.52
2023-11-07T11:05:24.520Z,0.95
2023-11-07T11:07:52.881Z,0.60
2023-11-07T11:10:23.244Z,0.63
2023-11-07T11:12:51.598Z,0.73
2023-11-07T11:15:20.149Z,0.65
2023-11-07T11:17:50.997Z,0.68
2023-11-07T11:20:23.966Z,0.82
2023-11-07T11:22:54.506Z,0.50
2023-11-07T11:25:28.271Z,0.57
2023-11-07T11:28:01.065Z,0.32
2023-11-07T11:30:29.839Z,0.80
2023-11-07T11:33:07.833Z,0.50
2023-11-07T11:35:39.545Z,0.60
2023-11-07T11:38:10.660Z,0.65
2023-11-07T11:40:48.063Z,0.73
2023-11-07T11:43:15.787Z,0.40
2023-11-07T11:45:47.307Z,0.40
2023-11-07T11:48:15.439Z,0.43
2023-11-07T11:50:46.207Z,0.65
2023-11-07T11:53:28.813Z,0.38
2023-11-07T11:56:17.653Z,0.70
2023-11-07T11:59:00.132Z,0.70
2023-11-07T12:01:27.799Z,0.70
2023-11-07T12:03:55.648Z,0.55
2023-11-07T12:06:25.361Z,0.73
2023-11-07T12:08:54.247Z,0.80
2023-11-07T12:11:27.000Z,0.50
2023-11-07T12:16:28.301Z,0.57
2023-11-07T12:18:57.863Z,0.63
2023-11-07T12:21:27.728Z,0.90
2023-11-07T12:23:57.261Z,0.70
2023-11-07T12:26:39.193Z,0.73
2023-11-07T12:29:07.506Z,1.38
2023-11-07T12:31:39.216Z,0.55
2023-11-07T12:34:08.705Z,0.63
2023-11-07T12:36:39.207Z,0.90
2023-11-07T12:39:07.469Z,0.80
2023-11-07T12:41:35.301Z,0.50
2023-11-07T12:44:12.156Z,0.35
2023-11-07T12:46:41.107Z,0.45
2023-11-07T12:49:15.663Z,0.50
2023-11-07T12:51:45.550Z,0.57
2023-11-07T12:54:14.250Z,0.52
2023-11-07T12:56:43.170Z,0.60
2023-11-07T12:59:11.326Z,0.70
2023-11-07T13:01:39.222Z,0.77
2023-11-07T13:04:14.506Z,1.00
2023-11-07T13:06:53.030Z,0.60
2023-11-07T13:09:22.432Z,0.55
2023-11-07T13:11:50.332Z,0.95
2023-11-07T13:14:18.239Z,0.40
2023-11-07T13:16:46.221Z,0.55
2023-11-07T13:19:14.048Z,0.80
2023-11-07T13:21:41.891Z,0.68
2023-11-07T13:24:11.917Z,0.60
2023-11-07T13:26:39.615Z,0.68
2023-11-07T13:29:07.592Z,0.77
2023-11-07T13:31:35.435Z,0.65
2023-11-07T13:34:03.564Z,0.85
2023-11-07T13:36:31.329Z,0.77
2023-11-07T13:38:59.344Z,0.60
2023-11-07T13:41:28.562Z,0.50
2023-11-07T13:43:56.572Z,0.47
2023-11-07T13:46:24.242Z,0.52
2023-11-07T13:48:54.622Z,0.63
2023-11-07T13:51:22.632Z,0.50
2023-11-07T13:53:52.512Z,0.68
2023-11-07T13:56:20.554Z,0.80
2023-11-07T13:58:49.945Z,0.50
2023-11-07T14:01:18.204Z,0.85
2023-11-07T14:03:46.667Z,0.93
2023-11-07T14:06:14.872Z,0.82
2023-11-07T14:08:42.658Z,0.40
2023-11-07T14:11:11.328Z,1.05
2023-11-07T14:13:39.057Z,0.80
2023-11-07T14:16:08.560Z,0.60
2023-11-07T14:18:36.472Z,0.77
2023-11-07T14:21:05.840Z,0.40
2023-11-07T14:23:34.334Z,0.45
2023-11-07T14:26:02.181Z,0.50
2023-11-07T14:28:29.892Z,0.70
2023-11-07T14:31:00.366Z,0.73
2023-11-07T14:33:31.959Z,0.50
2023-11-07T14:36:00.509Z,0.55
2023-11-07T14:38:30.436Z,0.50
2023-11-07T14:40:58.896Z,0.32
2023-11-07T14:43:26.876Z,0.45
2023-11-07T14:45:54.598Z,0.60
2023-11-07T14:48:23.283Z,0.60
2023-11-07T14:50:54.537Z,0.30
2023-11-07T14:53:24.506Z,1.52
2023-11-07T14:55:52.179Z,0.52
2023-11-07T14:58:21.296Z,0.57
2023-11-07T15:00:50.740Z,0.55
2023-11-07T15:03:18.796Z,1.10
2023-11-07T15:05:50.949Z,0.70
2023-11-07T15:08:20.850Z,0.65
2023-11-07T15:10:48.657Z,0.60
2023-11-07T15:13:16.535Z,0.60
2023-11-07T15:15:44.618Z,0.65
2023-11-07T15:18:12.707Z,0.70
2023-11-07T15:20:41.693Z,0.40
2023-11-07T15:23:09.885Z,0.90
2023-11-07T15:25:40.893Z,0.65
2023-11-07T15:28:08.618Z,0.52
2023-11-07T15:30:38.347Z,0.65
2023-11-07T15:33:06.286Z,0.55
2023-11-07T15:35:39.579Z,1.00
2023-11-07T15:38:08.575Z,0.43
2023-11-07T15:40:40.361Z,0.60
2023-11-07T15:43:10.354Z,0.50
2023-11-07T15:45:42.743Z,0.90
2023-11-07T15:48:11.705Z,0.63
2023-11-07T15:50:40.409Z,0.75
2023-11-07T15:53:10.198Z,1.60
2023-11-07T15:55:42.742Z,0.60
2023-11-07T15:58:12.338Z,0.60
2023-11-07T16:00:40.175Z,0.75
2023-11-07T16:03:08.035Z,0.60
2023-11-07T16:05:37.159Z,0.73
2023-11-07T16:08:06.031Z,0.70
2023-11-07T16:10:34.428Z,0.57
2023-11-07T16:13:03.515Z,0.90
2023-11-07T16:15:32.685Z,0.80
2023-11-07T16:18:00.760Z,0.82
2023-11-07T16:20:28.511Z,0.57
2023-11-07T16:22:57.368Z,0.98
2023-11-07T16:25:25.378Z,0.73
2023-11-07T16:27:54.212Z,0.82
2023-11-07T16:30:22.722Z,1.00
2023-11-07T16:32:52.291Z,1.05
2023-11-07T16:35:20.140Z,0.70
2023-11-07T16:37:49.559Z,1.20
2023-11-07T16:40:19.115Z,1.23
2023-11-07T16:42:48.250Z,0.82
2023-11-07T16:45:16.607Z,1.08
2023-11-07T16:47:44.581Z,0.80
2023-11-07T16:50:14.712Z,0.70
2023-11-07T16:52:42.746Z,0.88
2023-11-07T16:55:14.898Z,1.02
2023-11-07T16:57:43.713Z,1.67
2023-11-07T17:00:12.795Z,1.40
2023-11-07T17:02:40.609Z,0.90
2023-11-07T17:05:08.570Z,1.23
2023-11-07T17:07:37.932Z,1.45
2023-11-07T17:10:08.188Z,1.10
2023-11-07T17:12:36.544Z,1.13
2023-11-07T17:15:05.864Z,1.20
2023-11-07T17:17:33.734Z,1.25
2023-11-07T17:20:01.679Z,1.25
2023-11-07T17:22:30.696Z,1.10
2023-11-07T17:24:59.716Z,1.08
2023-11-07T17:27:31.718Z,1.40
2023-11-07T17:29:59.400Z,1.23
2023-11-07T17:32:27.250Z,1.52
2023-11-07T17:34:58.481Z,1.65
2023-11-07T17:37:28.800Z,1.13
2023-11-07T17:39:57.068Z,0.90
2023-11-07T17:42:27.890Z,1.17
2023-11-07T17:44:55.879Z,1.30
2023-11-07T17:47:26.512Z,1.63
2023-11-07T17:49:54.366Z,1.50
2023-11-07T17:52:22.049Z,1.80
2023-11-07T17:54:52.680Z,1.33
2023-11-07T17:57:20.520Z,1.10
2023-11-07T17:59:53.197Z,1.33
2023-11-07T18:02:22.106Z,1.60
2023-11-07T18:04:49.932Z,1.48
2023-11-07T18:07:17.983Z,1.40
2023-11-07T18:09:45.636Z,1.38
2023-11-07T18:12:13.356Z,1.05
2023-11-07T18:14:41.113Z,0.80
2023-11-07T18:17:10.152Z,1.30
2023-11-07T18:19:38.454Z,1.27
2023-11-07T18:22:08.089Z,1.92
2023-11-07T18:24:36.485Z,0.93
2023-11-07T18:27:04.378Z,1.20
2023-11-07T18:29:40.332Z,1.73
2023-11-07T18:32:12.736Z,1.23
2023-11-07T18:34:42.058Z,1.70
2023-11-07T18:37:10.475Z,1.40
2023-11-07T18:39:40.546Z,1.63
2023-11-07T18:42:09.253Z,1.10
2023-11-07T18:44:41.458Z,1.00
2023-11-07T18:47:14.119Z,1.13
2023-11-07T18:49:41.891Z,1.10
2023-11-07T18:52:09.689Z,1.17
2023-11-07T18:54:38.544Z,1.25
2023-11-07T18:57:12.480Z,1.05
2023-11-07T18:59:40.143Z,1.10
2023-11-07T19:02:08.320Z,0.93
2023-11-07T19:04:45.021Z,1.02
2023-11-07T19:07:13.688Z,1.35
2023-11-07T19:09:41.383Z,1.58
2023-11-07T19:12:09.558Z,0.82
2023-11-07T19:14:40.516Z,1.80
2023-11-07T19:17:10.618Z,1.45
2023-11-07T19:19:39.695Z,1.40
2023-11-07T19:22:07.600Z,1.23
2023-11-07T19:24:35.452Z,0.98
2023-11-07T19:27:04.287Z,1.17
2023-11-07T19:29:32.285Z,1.65
2023-11-07T19:32:01.173Z,1.10
2023-11-07T19:37:34.139Z,0.63
2023-11-07T19:40:01.808Z,0.95
2023-11-07T19:42:30.254Z,1.10
2023-11-07T19:44:58.646Z,0.82
2023-11-07T19:47:26.586Z,1.27
2023-11-07T19:49:54.255Z,1.52
2023-11-07T19:52:22.143Z,1.42
2023-11-07T19:54:52.350Z,1.08
2023-11-07T19:57:20.268Z,1.10
2023-11-07T19:59:48.595Z,1.10
2023-11-07T20:02:18.419Z,1.23
2023-11-07T20:04:46.799Z,1.15
2023-11-07T20:07:15.098Z,1.00
2023-11-07T20:09:42.862Z,1.05
2023-11-07T20:12:11.953Z,0.90
2023-11-07T20:14:41.493Z,1.30
2023-11-07T20:17:09.159Z,1.08
2023-11-07T20:19:37.807Z,1.20
2023-11-07T20:22:10.129Z,1.13
2023-11-07T20:24:40.772Z,0.90
2023-11-07T20:27:08.556Z,1.20
2023-11-07T20:29:37.742Z,1.17
2023-11-07T20:32:05.673Z,0.98
2023-11-07T20:34:35.104Z,1.15
2023-11-07T20:37:02.842Z,0.80
2023-11-07T20:39:30.660Z,1.70
2023-11-07T20:41:58.389Z,1.15
2023-11-07T20:44:32.118Z,1.30
2023-11-07T20:47:09.918Z,0.90
2023-11-07T20:49:40.580Z,1.10
2023-11-07T20:52:18.345Z,1.27
2023-11-07T20:54:51.074Z,1.05
2023-11-07T20:57:22.415Z,1.40
2023-11-07T20:59:50.209Z,1.10
2023-11-07T21:02:20.979Z,1.05
2023-11-07T21:04:49.546Z,1.20
2023-11-07T21:07:17.210Z,1.48
2023-11-07T21:09:44.871Z,1.23
2023-11-07T21:12:12.526Z,1.00
2023-11-07T21:14:41.400Z,1.23
2023-11-07T21:17:09.140Z,1.20
2023-11-07T21:19:39.652Z,1.25
2023-11-07T21:22:07.770Z,1.13
2023-11-07T21:24:35.588Z,1.48
2023-11-07T21:27:03.924Z,1.20
2023-11-07T21:29:31.852Z,0.63
2023-11-07T21:32:00.071Z,1.35
2023-11-07T21:34:28.203Z,1.08
2023-11-07T21:36:58.235Z,0.80
2023-11-07T21:39:26.149Z,1.10
2023-11-07T21:41:53.895Z,1.00
2023-11-07T21:44:22.784Z,1.50
2023-11-07T21:46:51.866Z,1.33
2023-11-07T21:49:19.615Z,1.23
2023-11-07T21:51:47.333Z,1.52
2023-11-07T21:54:16.423Z,1.10
2023-11-07T21:56:47.285Z,1.55
2023-11-07T21:59:16.132Z,1.08
2023-11-07T22:01:43.820Z,1.10
2023-11-07T22:04:11.561Z,1.17
2023-11-07T22:06:39.480Z,1.10
2023-11-07T22:09:07.193Z,1.00
2023-11-07T22:11:36.555Z,1.70
2023-11-07T22:14:04.216Z,1.10
2023-11-07T22:16:31.882Z,2.42
2023-11-07T22:18:59.553Z,1.30
2023-11-07T22:21:27.837Z,1.40
2023-11-07T22:23:55.488Z,1.20
2023-11-07T22:26:23.267Z,1.48
2023-11-07T22:28:52.476Z,1.20
2023-11-07T22:31:20.151Z,1.52
2023-11-07T22:33:48.092Z,1.35
2023-11-07T22:36:16.179Z,2.25
2023-11-07T22:38:43.791Z,1.95
2023-11-07T22:41:11.461Z,1.70
2023-11-07T22:43:39.240Z,1.52
2023-11-07T22:46:08.340Z,1.23
2023-11-07T22:48:37.216Z,1.80
2023-11-07T22:51:05.180Z,1.50
2023-11-07T22:53:32.912Z,1.48
2023-11-07T22:56:01.330Z,1.23
2023-11-07T22:58:29.074Z,2.00
2023-11-07T23:00:57.254Z,1.33
2023-11-07T23:03:26.822Z,2.05
2023-11-07T23:05:54.685Z,1.88
2023-11-07T23:08:22.512Z,1.92
2023-11-07T23:10:51.300Z,2.55
2023-11-07T23:13:19.209Z,1.92
2023-11-07T23:15:48.743Z,1.67
2023-11-07T23:18:16.589Z,1.33
2023-11-07T23:20:45.777Z,1.50
2023-11-07T23:23:13.437Z,1.10
2023-11-07T23:25:44.873Z,1.60
2023-11-07T23:28:12.779Z,1.73
2023-11-07T23:30:40.541Z,1.38
2023-11-07T23:33:12.022Z,1.15
2023-11-07T23:35:41.183Z,1.48
2023-11-07T23:38:11.257Z,1.30
2023-11-07T23:40:39.120Z,0.90
2023-11-07T23:43:08.524Z,1.38
2023-11-07T23:45:36.156Z,1.25
2023-11-07T23:48:08.374Z,1.40
2023-11-07T23:50:38.243Z,1.40
2023-11-07T23:53:06.746Z,1.00
2023-11-07T23:55:35.846Z,0.88
2023-11-07T23:58:03.576Z,1.10
